sensor_id;sensor_type;location;lat;lon;timestamp;temperature;humidity
23803;DHT22;12082;51.786;6.018;2023-07-02T00:01:09;16.90;99.90
23803;DHT22;12082;51.786;6.018;2023-07-02T00:03:35;16.90;99.90
23803;DHT22;12082;51.786;6.018;2023-07-02T00:06:02;16.80;99.90
23803;DHT22;12082;51.786;6.018;2023-07-02T00:08:28;16.90;99.90
23803;DHT22;12082;51.786;6.018;2023-07-02T00:10:53;16.80;99.90
23803;DHT22;12082;51.786;6.018;2023-07-02T00:13:19;16.80;99.90
23803;DHT22;12082;51.786;6.018;2023-07-02T00:15:44;16.70;99.90
23803;DHT22;12082;51.786;6.018;2023-07-02T00:18:10;16.70;99.90
23803;DHT22;12082;51.786;6.018;2023-07-02T00:20:35;16.60;99.90
23803;DHT22;12082;51.786;6.018;2023-07-02T00:23:05;16.60;99.90
23803;DHT22;12082;51.786;6.018;2023-07-02T00:25:34;16.60;99.90
23803;DHT22;12082;51.786;6.018;2023-07-02T00:27:59;16.60;99.90
23803;DHT22;12082;51.786;6.018;2023-07-02T00:30:25;16.60;99.90
23803;DHT22;12082;51.786;6.018;2023-07-02T00:32:50;16.60;99.90
23803;DHT22;12082;51.786;6.018;2023-07-02T00:35:16;16.50;99.90
23803;DHT22;12082;51.786;6.018;2023-07-02T00:37:41;16.50;99.90
23803;DHT22;12082;51.786;6.018;2023-07-02T00:40:07;16.40;99.90
23803;DHT22;12082;51.786;6.018;2023-07-02T00:42:34;16.40;99.90
23803;DHT22;12082;51.786;6.018;2023-07-02T00:44:59;16.40;99.90
23803;DHT22;12082;51.786;6.018;2023-07-02T00:47:28;16.40;99.90
23803;DHT22;12082;51.786;6.018;2023-07-02T00:49:54;16.40;99.90
23803;DHT22;12082;51.786;6.018;2023-07-02T00:52:20;16.60;99.90
23803;DHT22;12082;51.786;6.018;2023-07-02T00:54:46;16.50;99.90
23803;DHT22;12082;51.786;6.018;2023-07-02T00:57:12;16.50;99.90
23803;DHT22;12082;51.786;6.018;2023-07-02T00:59:38;16.50;99.90
23803;DHT22;12082;51.786;6.018;2023-07-02T01:02:06;16.60;99.90
23803;DHT22;12082;51.786;6.018;2023-07-02T01:04:32;16.60;99.90
23803;DHT22;12082;51.786;6.018;2023-07-02T01:06:57;16.70;99.90
23803;DHT22;12082;51.786;6.018;2023-07-02T01:09:24;16.70;99.90
23803;DHT22;12082;51.786;6.018;2023-07-02T01:11:57;16.80;99.90
23803;DHT22;12082;51.786;6.018;2023-07-02T01:14:27;16.70;99.90
23803;DHT22;12082;51.786;6.018;2023-07-02T01:16:55;16.80;99.90
23803;DHT22;12082;51.786;6.018;2023-07-02T01:19:49;16.80;99.90
23803;DHT22;12082;51.786;6.018;2023-07-02T01:22:28;16.70;99.90
23803;DHT22;12082;51.786;6.018;2023-07-02T01:24:55;16.50;99.90
23803;DHT22;12082;51.786;6.018;2023-07-02T01:27:21;16.20;99.90
23803;DHT22;12082;51.786;6.018;2023-07-02T01:29:47;15.80;99.90
23803;DHT22;12082;51.786;6.018;2023-07-02T01:32:16;15.50;99.90
23803;DHT22;12082;51.786;6.018;2023-07-02T01:34:41;15.00;99.90
23803;DHT22;12082;51.786;6.018;2023-07-02T01:37:09;14.80;99.90
23803;DHT22;12082;51.786;6.018;2023-07-02T01:39:34;14.70;99.90
23803;DHT22;12082;51.786;6.018;2023-07-02T01:42:11;14.50;99.90
23803;DHT22;12082;51.786;6.018;2023-07-02T01:44:38;14.40;99.90
23803;DHT22;12082;51.786;6.018;2023-07-02T01:47:04;14.20;99.90
23803;DHT22;12082;51.786;6.018;2023-07-02T01:49:30;14.10;99.90
23803;DHT22;12082;51.786;6.018;2023-07-02T01:51:56;14.10;99.90
23803;DHT22;12082;51.786;6.018;2023-07-02T01:54:24;14.00;99.90
23803;DHT22;12082;51.786;6.018;2023-07-02T01:56:49;14.00;99.90
23803;DHT22;12082;51.786;6.018;2023-07-02T01:59:15;13.90;99.90
23803;DHT22;12082;51.786;6.018;2023-07-02T02:01:42;13.90;99.90
23803;DHT22;12082;51.786;6.018;2023-07-02T02:04:09;13.90;99.90
23803;DHT22;12082;51.786;6.018;2023-07-02T02:06:34;13.90;99.90
23803;DHT22;12082;51.786;6.018;2023-07-02T02:09:00;13.80;99.90
23803;DHT22;12082;51.786;6.018;2023-07-02T02:11:26;13.80;99.90
23803;DHT22;12082;51.786;6.018;2023-07-02T02:13:52;13.80;99.90
23803;DHT22;12082;51.786;6.018;2023-07-02T02:16:17;13.70;99.90
23803;DHT22;12082;51.786;6.018;2023-07-02T02:18:43;13.70;99.90
23803;DHT22;12082;51.786;6.018;2023-07-02T02:21:09;13.60;99.90
23803;DHT22;12082;51.786;6.018;2023-07-02T02:23:34;13.60;99.90
23803;DHT22;12082;51.786;6.018;2023-07-02T02:26:00;13.60;99.90
23803;DHT22;12082;51.786;6.018;2023-07-02T02:28:25;13.60;99.90
23803;DHT22;12082;51.786;6.018;2023-07-02T02:30:51;13.50;99.90
23803;DHT22;12082;51.786;6.018;2023-07-02T02:33:17;13.40;99.90
23803;DHT22;12082;51.786;6.018;2023-07-02T02:35:42;13.40;99.90
23803;DHT22;12082;51.786;6.018;2023-07-02T02:38:08;13.30;99.90
23803;DHT22;12082;51.786;6.018;2023-07-02T02:40:33;13.30;99.90
23803;DHT22;12082;51.786;6.018;2023-07-02T02:43:00;13.20;99.90
23803;DHT22;12082;51.786;6.018;2023-07-02T02:45:25;13.10;99.90
23803;DHT22;12082;51.786;6.018;2023-07-02T02:47:51;13.10;99.90
23803;DHT22;12082;51.786;6.018;2023-07-02T02:50:16;13.10;99.90
23803;DHT22;12082;51.786;6.018;2023-07-02T02:52:42;13.20;99.90
23803;DHT22;12082;51.786;6.018;2023-07-02T02:55:09;13.20;99.90
23803;DHT22;12082;51.786;6.018;2023-07-02T02:57:36;13.30;99.90
23803;DHT22;12082;51.786;6.018;2023-07-02T03:00:02;13.30;99.90
23803;DHT22;12082;51.786;6.018;2023-07-02T03:02:28;13.30;99.90
23803;DHT22;12082;51.786;6.018;2023-07-02T03:04:53;13.30;99.90
23803;DHT22;12082;51.786;6.018;2023-07-02T03:07:19;13.30;99.90
23803;DHT22;12082;51.786;6.018;2023-07-02T03:09:44;13.20;99.90
23803;DHT22;12082;51.786;6.018;2023-07-02T03:12:10;13.20;99.90
23803;DHT22;12082;51.786;6.018;2023-07-02T03:14:36;13.20;99.90
23803;DHT22;12082;51.786;6.018;2023-07-02T03:17:01;13.30;99.90
23803;DHT22;12082;51.786;6.018;2023-07-02T03:19:28;13.30;99.90
23803;DHT22;12082;51.786;6.018;2023-07-02T03:21:54;13.40;99.90
23803;DHT22;12082;51.786;6.018;2023-07-02T03:24:19;13.40;99.90
23803;DHT22;12082;51.786;6.018;2023-07-02T03:26:45;13.50;99.90
23803;DHT22;12082;51.786;6.018;2023-07-02T03:29:11;13.50;99.90
23803;DHT22;12082;51.786;6.018;2023-07-02T03:31:37;13.60;99.90
23803;DHT22;12082;51.786;6.018;2023-07-02T03:34:09;13.60;99.90
23803;DHT22;12082;51.786;6.018;2023-07-02T03:36:35;13.70;99.90
23803;DHT22;12082;51.786;6.018;2023-07-02T03:39:01;13.70;99.90
23803;DHT22;12082;51.786;6.018;2023-07-02T03:41:28;13.70;99.90
23803;DHT22;12082;51.786;6.018;2023-07-02T03:43:53;13.70;99.90
23803;DHT22;12082;51.786;6.018;2023-07-02T03:46:19;13.80;99.90
23803;DHT22;12082;51.786;6.018;2023-07-02T03:48:45;13.80;99.90
23803;DHT22;12082;51.786;6.018;2023-07-02T03:51:10;13.80;99.90
23803;DHT22;12082;51.786;6.018;2023-07-02T03:53:39;13.80;99.90
23803;DHT22;12082;51.786;6.018;2023-07-02T03:56:05;13.80;99.90
23803;DHT22;12082;51.786;6.018;2023-07-02T03:58:30;13.80;99.90
23803;DHT22;12082;51.786;6.018;2023-07-02T04:00:56;13.80;99.90
23803;DHT22;12082;51.786;6.018;2023-07-02T04:03:21;13.80;99.90
23803;DHT22;12082;51.786;6.018;2023-07-02T04:05:47;13.80;99.90
23803;DHT22;12082;51.786;6.018;2023-07-02T04:08:12;13.80;99.90
23803;DHT22;12082;51.786;6.018;2023-07-02T04:10:38;13.90;99.90
23803;DHT22;12082;51.786;6.018;2023-07-02T04:13:04;13.90;99.90
23803;DHT22;12082;51.786;6.018;2023-07-02T04:15:29;14.00;99.90
23803;DHT22;12082;51.786;6.018;2023-07-02T04:17:55;14.00;99.90
23803;DHT22;12082;51.786;6.018;2023-07-02T04:20:20;14.10;99.90
23803;DHT22;12082;51.786;6.018;2023-07-02T04:22:46;14.00;99.90
23803;DHT22;12082;51.786;6.018;2023-07-02T04:25:13;14.10;99.90
23803;DHT22;12082;51.786;6.018;2023-07-02T04:27:44;14.10;99.90
23803;DHT22;12082;51.786;6.018;2023-07-02T04:30:11;14.20;99.90
23803;DHT22;12082;51.786;6.018;2023-07-02T04:32:37;14.20;99.90
23803;DHT22;12082;51.786;6.018;2023-07-02T04:35:09;14.20;99.90
23803;DHT22;12082;51.786;6.018;2023-07-02T04:37:36;14.20;99.90
23803;DHT22;12082;51.786;6.018;2023-07-02T04:40:03;14.20;99.90
23803;DHT22;12082;51.786;6.018;2023-07-02T04:42:36;14.20;99.90
23803;DHT22;12082;51.786;6.018;2023-07-02T04:45:04;14.20;99.90
23803;DHT22;12082;51.786;6.018;2023-07-02T04:47:30;14.30;99.90
23803;DHT22;12082;51.786;6.018;2023-07-02T04:49:56;14.30;99.90
23803;DHT22;12082;51.786;6.018;2023-07-02T04:52:22;14.40;99.90
23803;DHT22;12082;51.786;6.018;2023-07-02T04:54:47;14.50;99.90
23803;DHT22;12082;51.786;6.018;2023-07-02T04:57:13;14.60;99.90
23803;DHT22;12082;51.786;6.018;2023-07-02T04:59:42;14.60;99.90
23803;DHT22;12082;51.786;6.018;2023-07-02T05:02:08;14.70;99.90
23803;DHT22;12082;51.786;6.018;2023-07-02T05:04:33;14.90;99.90
23803;DHT22;12082;51.786;6.018;2023-07-02T05:06:59;14.90;99.90
23803;DHT22;12082;51.786;6.018;2023-07-02T05:09:25;14.90;99.90
23803;DHT22;12082;51.786;6.018;2023-07-02T05:11:51;15.10;99.90
23803;DHT22;12082;51.786;6.018;2023-07-02T05:14:16;15.10;99.90
23803;DHT22;12082;51.786;6.018;2023-07-02T05:16:42;15.20;99.90
23803;DHT22;12082;51.786;6.018;2023-07-02T05:19:07;15.20;99.90
23803;DHT22;12082;51.786;6.018;2023-07-02T05:21:33;15.20;99.90
23803;DHT22;12082;51.786;6.018;2023-07-02T05:23:58;15.30;99.90
23803;DHT22;12082;51.786;6.018;2023-07-02T05:26:24;15.30;99.90
23803;DHT22;12082;51.786;6.018;2023-07-02T05:28:51;15.40;99.90
23803;DHT22;12082;51.786;6.018;2023-07-02T05:31:17;15.50;99.90
23803;DHT22;12082;51.786;6.018;2023-07-02T05:33:42;15.50;99.90
23803;DHT22;12082;51.786;6.018;2023-07-02T05:36:08;15.60;99.90
23803;DHT22;12082;51.786;6.018;2023-07-02T05:38:33;15.70;99.90
23803;DHT22;12082;51.786;6.018;2023-07-02T05:40:59;15.80;99.90
23803;DHT22;12082;51.786;6.018;2023-07-02T05:43:24;15.80;99.90
23803;DHT22;12082;51.786;6.018;2023-07-02T05:45:51;15.90;99.90
23803;DHT22;12082;51.786;6.018;2023-07-02T05:48:18;15.90;99.90
23803;DHT22;12082;51.786;6.018;2023-07-02T05:50:43;16.00;99.90
23803;DHT22;12082;51.786;6.018;2023-07-02T05:53:09;16.30;99.90
23803;DHT22;12082;51.786;6.018;2023-07-02T05:55:36;16.40;99.90
23803;DHT22;12082;51.786;6.018;2023-07-02T05:58:01;16.40;99.90
23803;DHT22;12082;51.786;6.018;2023-07-02T06:00:28;16.30;99.90
23803;DHT22;12082;51.786;6.018;2023-07-02T06:02:54;16.40;99.90
23803;DHT22;12082;51.786;6.018;2023-07-02T06:05:20;16.10;99.90
23803;DHT22;12082;51.786;6.018;2023-07-02T06:07:45;16.40;99.90
23803;DHT22;12082;51.786;6.018;2023-07-02T06:10:11;16.40;99.90
23803;DHT22;12082;51.786;6.018;2023-07-02T06:12:37;16.50;99.90
23803;DHT22;12082;51.786;6.018;2023-07-02T06:15:03;16.40;99.90
23803;DHT22;12082;51.786;6.018;2023-07-02T06:17:28;16.40;99.90
23803;DHT22;12082;51.786;6.018;2023-07-02T06:19:56;16.50;99.90
23803;DHT22;12082;51.786;6.018;2023-07-02T06:22:22;16.60;99.90
23803;DHT22;12082;51.786;6.018;2023-07-02T06:24:47;16.80;99.90
23803;DHT22;12082;51.786;6.018;2023-07-02T06:27:13;16.80;99.90
23803;DHT22;12082;51.786;6.018;2023-07-02T06:29:38;16.90;99.90
23803;DHT22;12082;51.786;6.018;2023-07-02T06:32:04;16.90;99.90
23803;DHT22;12082;51.786;6.018;2023-07-02T06:34:30;17.00;99.90
23803;DHT22;12082;51.786;6.018;2023-07-02T06:36:55;17.10;99.90
23803;DHT22;12082;51.786;6.018;2023-07-02T06:39:21;17.10;99.90
23803;DHT22;12082;51.786;6.018;2023-07-02T06:41:46;17.20;99.90
23803;DHT22;12082;51.786;6.018;2023-07-02T06:44:12;17.20;99.90
23803;DHT22;12082;51.786;6.018;2023-07-02T06:46:37;17.20;99.90
23803;DHT22;12082;51.786;6.018;2023-07-02T06:49:03;17.30;99.90
23803;DHT22;12082;51.786;6.018;2023-07-02T06:51:28;17.50;99.90
23803;DHT22;12082;51.786;6.018;2023-07-02T06:53:54;17.60;99.90
23803;DHT22;12082;51.786;6.018;2023-07-02T06:56:20;17.50;99.90
23803;DHT22;12082;51.786;6.018;2023-07-02T06:58:46;17.30;99.90
23803;DHT22;12082;51.786;6.018;2023-07-02T07:01:11;17.30;99.90
23803;DHT22;12082;51.786;6.018;2023-07-02T07:03:37;17.50;99.90
23803;DHT22;12082;51.786;6.018;2023-07-02T07:06:03;17.90;99.90
23803;DHT22;12082;51.786;6.018;2023-07-02T07:08:28;18.20;99.90
23803;DHT22;12082;51.786;6.018;2023-07-02T07:10:54;18.20;99.90
23803;DHT22;12082;51.786;6.018;2023-07-02T07:13:20;18.10;99.90
23803;DHT22;12082;51.786;6.018;2023-07-02T07:15:46;18.00;99.90
23803;DHT22;12082;51.786;6.018;2023-07-02T07:18:11;18.10;99.90
23803;DHT22;12082;51.786;6.018;2023-07-02T07:20:39;18.20;99.90
23803;DHT22;12082;51.786;6.018;2023-07-02T07:23:05;18.00;99.90
23803;DHT22;12082;51.786;6.018;2023-07-02T07:25:31;18.10;99.90
23803;DHT22;12082;51.786;6.018;2023-07-02T07:27:58;17.80;99.90
23803;DHT22;12082;51.786;6.018;2023-07-02T07:30:24;17.50;99.90
23803;DHT22;12082;51.786;6.018;2023-07-02T07:32:51;17.60;99.90
23803;DHT22;12082;51.786;6.018;2023-07-02T07:35:17;17.70;99.90
23803;DHT22;12082;51.786;6.018;2023-07-02T07:37:43;17.90;99.90
23803;DHT22;12082;51.786;6.018;2023-07-02T07:40:10;18.00;99.90
23803;DHT22;12082;51.786;6.018;2023-07-02T07:42:35;18.10;99.90
23803;DHT22;12082;51.786;6.018;2023-07-02T07:45:02;18.50;99.90
23803;DHT22;12082;51.786;6.018;2023-07-02T07:47:28;18.40;99.90
23803;DHT22;12082;51.786;6.018;2023-07-02T07:49:54;18.30;99.90
23803;DHT22;12082;51.786;6.018;2023-07-02T07:52:20;18.40;99.90
23803;DHT22;12082;51.786;6.018;2023-07-02T07:54:45;18.90;99.90
23803;DHT22;12082;51.786;6.018;2023-07-02T07:57:11;19.20;99.90
23803;DHT22;12082;51.786;6.018;2023-07-02T07:59:37;19.30;99.90
23803;DHT22;12082;51.786;6.018;2023-07-02T08:02:02;19.10;99.90
23803;DHT22;12082;51.786;6.018;2023-07-02T08:04:28;18.40;99.90
23803;DHT22;12082;51.786;6.018;2023-07-02T08:06:53;18.30;99.90
23803;DHT22;12082;51.786;6.018;2023-07-02T08:09:20;18.10;99.90
23803;DHT22;12082;51.786;6.018;2023-07-02T08:11:46;18.00;99.90
23803;DHT22;12082;51.786;6.018;2023-07-02T08:14:12;17.90;99.90
23803;DHT22;12082;51.786;6.018;2023-07-02T08:16:38;17.90;99.90
23803;DHT22;12082;51.786;6.018;2023-07-02T08:19:04;17.70;99.90
23803;DHT22;12082;51.786;6.018;2023-07-02T08:21:30;17.80;99.90
23803;DHT22;12082;51.786;6.018;2023-07-02T08:23:56;17.80;99.90
23803;DHT22;12082;51.786;6.018;2023-07-02T08:26:23;17.80;99.90
23803;DHT22;12082;51.786;6.018;2023-07-02T08:28:48;17.70;99.90
23803;DHT22;12082;51.786;6.018;2023-07-02T08:31:14;17.60;99.90
23803;DHT22;12082;51.786;6.018;2023-07-02T08:33:40;17.50;99.90
23803;DHT22;12082;51.786;6.018;2023-07-02T08:36:06;17.40;99.90
23803;DHT22;12082;51.786;6.018;2023-07-02T08:38:31;17.40;99.90
23803;DHT22;12082;51.786;6.018;2023-07-02T08:40:57;17.50;99.90
23803;DHT22;12082;51.786;6.018;2023-07-02T08:43:24;17.60;99.90
23803;DHT22;12082;51.786;6.018;2023-07-02T08:45:50;18.10;99.90
23803;DHT22;12082;51.786;6.018;2023-07-02T08:48:17;18.80;99.90
23803;DHT22;12082;51.786;6.018;2023-07-02T08:50:48;19.30;99.90
23803;DHT22;12082;51.786;6.018;2023-07-02T08:53:14;19.30;99.90
23803;DHT22;12082;51.786;6.018;2023-07-02T08:55:40;19.10;99.90
23803;DHT22;12082;51.786;6.018;2023-07-02T08:58:06;18.70;99.90
23803;DHT22;12082;51.786;6.018;2023-07-02T09:00:31;18.40;99.90
23803;DHT22;12082;51.786;6.018;2023-07-02T09:03:14;18.20;99.90
23803;DHT22;12082;51.786;6.018;2023-07-02T09:05:51;17.90;99.90
23803;DHT22;12082;51.786;6.018;2023-07-02T09:08:26;17.90;99.90
23803;DHT22;12082;51.786;6.018;2023-07-02T09:10:53;17.90;99.90
23803;DHT22;12082;51.786;6.018;2023-07-02T09:13:19;17.90;99.90
23803;DHT22;12082;51.786;6.018;2023-07-02T09:15:45;18.20;99.90
23803;DHT22;12082;51.786;6.018;2023-07-02T09:18:18;18.70;99.90
23803;DHT22;12082;51.786;6.018;2023-07-02T09:20:44;19.00;99.90
23803;DHT22;12082;51.786;6.018;2023-07-02T09:23:09;19.30;99.90
23803;DHT22;12082;51.786;6.018;2023-07-02T09:25:37;19.20;99.90
23803;DHT22;12082;51.786;6.018;2023-07-02T09:28:14;19.00;99.90
23803;DHT22;12082;51.786;6.018;2023-07-02T09:30:50;18.90;99.90
23803;DHT22;12082;51.786;6.018;2023-07-02T09:33:16;19.20;99.90
23803;DHT22;12082;51.786;6.018;2023-07-02T09:35:42;19.50;99.90
23803;DHT22;12082;51.786;6.018;2023-07-02T09:38:08;20.10;99.90
23803;DHT22;12082;51.786;6.018;2023-07-02T09:40:34;20.20;99.90
23803;DHT22;12082;51.786;6.018;2023-07-02T09:43:00;20.30;99.90
23803;DHT22;12082;51.786;6.018;2023-07-02T09:45:26;19.70;99.90
23803;DHT22;12082;51.786;6.018;2023-07-02T09:47:55;19.60;99.90
23803;DHT22;12082;51.786;6.018;2023-07-02T09:50:22;19.20;99.90
23803;DHT22;12082;51.786;6.018;2023-07-02T09:52:49;19.00;99.90
23803;DHT22;12082;51.786;6.018;2023-07-02T09:55:15;18.90;99.90
23803;DHT22;12082;51.786;6.018;2023-07-02T09:57:43;18.90;99.90
23803;DHT22;12082;51.786;6.018;2023-07-02T10:00:09;19.10;99.90
23803;DHT22;12082;51.786;6.018;2023-07-02T10:02:35;19.40;99.90
23803;DHT22;12082;51.786;6.018;2023-07-02T10:05:01;19.70;99.90
23803;DHT22;12082;51.786;6.018;2023-07-02T10:07:31;19.70;99.90
23803;DHT22;12082;51.786;6.018;2023-07-02T10:10:00;19.20;99.90
23803;DHT22;12082;51.786;6.018;2023-07-02T10:12:27;19.00;99.90
23803;DHT22;12082;51.786;6.018;2023-07-02T10:14:54;18.80;99.90
23803;DHT22;12082;51.786;6.018;2023-07-02T10:17:27;18.90;99.90
23803;DHT22;12082;51.786;6.018;2023-07-02T10:20:00;19.00;99.90
23803;DHT22;12082;51.786;6.018;2023-07-02T10:22:26;19.20;99.90
23803;DHT22;12082;51.786;6.018;2023-07-02T10:24:57;19.30;99.90
23803;DHT22;12082;51.786;6.018;2023-07-02T10:27:38;19.40;99.90
23803;DHT22;12082;51.786;6.018;2023-07-02T10:30:05;19.20;99.90
23803;DHT22;12082;51.786;6.018;2023-07-02T10:32:35;19.10;99.90
23803;DHT22;12082;51.786;6.018;2023-07-02T10:35:32;18.90;99.90
23803;DHT22;12082;51.786;6.018;2023-07-02T10:37:58;19.10;99.90
23803;DHT22;12082;51.786;6.018;2023-07-02T10:40:24;20.40;99.90
23803;DHT22;12082;51.786;6.018;2023-07-02T10:42:51;19.60;99.90
23803;DHT22;12082;51.786;6.018;2023-07-02T10:45:18;19.70;99.90
23803;DHT22;12082;51.786;6.018;2023-07-02T10:47:44;19.50;99.90
23803;DHT22;12082;51.786;6.018;2023-07-02T10:50:20;19.50;99.90
23803;DHT22;12082;51.786;6.018;2023-07-02T10:52:46;19.50;99.90
23803;DHT22;12082;51.786;6.018;2023-07-02T10:55:22;19.70;99.90
23803;DHT22;12082;51.786;6.018;2023-07-02T10:57:49;20.00;99.90
23803;DHT22;12082;51.786;6.018;2023-07-02T11:00:18;20.20;99.90
23803;DHT22;12082;51.786;6.018;2023-07-02T11:02:44;20.30;99.90
23803;DHT22;12082;51.786;6.018;2023-07-02T11:05:10;20.00;99.90
23803;DHT22;12082;51.786;6.018;2023-07-02T11:07:38;19.80;99.90
23803;DHT22;12082;51.786;6.018;2023-07-02T11:10:05;19.70;99.90
23803;DHT22;12082;51.786;6.018;2023-07-02T11:12:31;19.60;99.90
23803;DHT22;12082;51.786;6.018;2023-07-02T11:17:34;19.80;99.90
23803;DHT22;12082;51.786;6.018;2023-07-02T11:20:00;20.00;99.90
23803;DHT22;12082;51.786;6.018;2023-07-02T11:22:36;20.20;99.90
23803;DHT22;12082;51.786;6.018;2023-07-02T11:25:18;20.40;99.90
23803;DHT22;12082;51.786;6.018;2023-07-02T11:27:45;20.50;99.90
23803;DHT22;12082;51.786;6.018;2023-07-02T11:30:11;20.70;99.90
23803;DHT22;12082;51.786;6.018;2023-07-02T11:33:06;20.90;99.90
23803;DHT22;12082;51.786;6.018;2023-07-02T11:35:35;20.50;99.90
23803;DHT22;12082;51.786;6.018;2023-07-02T11:38:01;20.70;99.90
23803;DHT22;12082;51.786;6.018;2023-07-02T11:40:27;20.80;99.90
23803;DHT22;12082;51.786;6.018;2023-07-02T11:42:52;20.40;99.90
23803;DHT22;12082;51.786;6.018;2023-07-02T11:45:18;20.60;99.90
23803;DHT22;12082;51.786;6.018;2023-07-02T11:47:43;20.50;99.90
23803;DHT22;12082;51.786;6.018;2023-07-02T11:50:09;20.60;99.90
23803;DHT22;12082;51.786;6.018;2023-07-02T11:52:35;20.40;99.90
23803;DHT22;12082;51.786;6.018;2023-07-02T11:55:01;20.60;99.90
23803;DHT22;12082;51.786;6.018;2023-07-02T11:57:26;20.50;99.90
23803;DHT22;12082;51.786;6.018;2023-07-02T11:59:52;20.70;99.90
23803;DHT22;12082;51.786;6.018;2023-07-02T12:02:23;20.70;99.90
23803;DHT22;12082;51.786;6.018;2023-07-02T12:05:19;20.90;99.90
23803;DHT22;12082;51.786;6.018;2023-07-02T12:07:44;20.80;99.90
23803;DHT22;12082;51.786;6.018;2023-07-02T12:10:10;20.70;99.90
23803;DHT22;12082;51.786;6.018;2023-07-02T12:12:35;20.60;99.90
23803;DHT22;12082;51.786;6.018;2023-07-02T12:15:01;20.50;99.90
23803;DHT22;12082;51.786;6.018;2023-07-02T12:17:27;20.50;99.90
23803;DHT22;12082;51.786;6.018;2023-07-02T12:19:53;20.40;99.90
23803;DHT22;12082;51.786;6.018;2023-07-02T12:22:18;20.50;99.90
23803;DHT22;12082;51.786;6.018;2023-07-02T12:24:47;20.70;99.90
23803;DHT22;12082;51.786;6.018;2023-07-02T12:27:13;20.80;99.90
23803;DHT22;12082;51.786;6.018;2023-07-02T12:29:38;20.90;99.90
23803;DHT22;12082;51.786;6.018;2023-07-02T12:32:04;20.70;99.90
23803;DHT22;12082;51.786;6.018;2023-07-02T12:34:31;20.40;99.90
23803;DHT22;12082;51.786;6.018;2023-07-02T12:36:57;20.70;99.90
23803;DHT22;12082;51.786;6.018;2023-07-02T12:39:22;21.10;99.90
23803;DHT22;12082;51.786;6.018;2023-07-02T12:41:48;21.40;99.90
23803;DHT22;12082;51.786;6.018;2023-07-02T12:44:13;21.20;99.90
23803;DHT22;12082;51.786;6.018;2023-07-02T12:46:39;21.10;99.90
23803;DHT22;12082;51.786;6.018;2023-07-02T12:49:05;20.90;99.90
23803;DHT22;12082;51.786;6.018;2023-07-02T12:51:30;21.10;99.90
23803;DHT22;12082;51.786;6.018;2023-07-02T12:53:56;20.90;99.90
23803;DHT22;12082;51.786;6.018;2023-07-02T12:56:22;21.00;99.90
23803;DHT22;12082;51.786;6.018;2023-07-02T12:58:47;21.40;99.90
23803;DHT22;12082;51.786;6.018;2023-07-02T13:01:13;21.60;99.80
23803;DHT22;12082;51.786;6.018;2023-07-02T13:03:45;22.00;99.30
23803;DHT22;12082;51.786;6.018;2023-07-02T13:06:11;22.10;99.10
23803;DHT22;12082;51.786;6.018;2023-07-02T13:08:36;21.70;99.90
23803;DHT22;12082;51.786;6.018;2023-07-02T13:11:02;21.80;99.90
23803;DHT22;12082;51.786;6.018;2023-07-02T13:13:28;21.90;99.90
23803;DHT22;12082;51.786;6.018;2023-07-02T13:15:53;21.90;99.50
23803;DHT22;12082;51.786;6.018;2023-07-02T13:18:19;22.00;98.80
23803;DHT22;12082;51.786;6.018;2023-07-02T13:20:44;21.50;98.80
23803;DHT22;12082;51.786;6.018;2023-07-02T13:23:10;21.40;99.50
23803;DHT22;12082;51.786;6.018;2023-07-02T13:25:35;21.50;99.90
23803;DHT22;12082;51.786;6.018;2023-07-02T13:28:01;21.40;99.90
23803;DHT22;12082;51.786;6.018;2023-07-02T13:30:26;21.00;99.90
23803;DHT22;12082;51.786;6.018;2023-07-02T13:32:54;20.80;99.90
23803;DHT22;12082;51.786;6.018;2023-07-02T13:35:19;20.70;99.90
23803;DHT22;12082;51.786;6.018;2023-07-02T13:37:45;20.60;99.90
23803;DHT22;12082;51.786;6.018;2023-07-02T13:40:11;20.60;99.90
23803;DHT22;12082;51.786;6.018;2023-07-02T13:42:38;21.00;99.90
23803;DHT22;12082;51.786;6.018;2023-07-02T13:45:04;21.20;99.80
23803;DHT22;12082;51.786;6.018;2023-07-02T13:47:30;21.30;99.90
23803;DHT22;12082;51.786;6.018;2023-07-02T13:49:56;21.70;99.90
23803;DHT22;12082;51.786;6.018;2023-07-02T13:52:21;22.00;99.90
23803;DHT22;12082;51.786;6.018;2023-07-02T13:54:47;21.50;98.80
23803;DHT22;12082;51.786;6.018;2023-07-02T13:57:12;21.70;99.90
23803;DHT22;12082;51.786;6.018;2023-07-02T13:59:39;21.60;99.40
23803;DHT22;12082;51.786;6.018;2023-07-02T14:02:05;21.90;99.90
23803;DHT22;12082;51.786;6.018;2023-07-02T14:04:30;22.00;99.90
23803;DHT22;12082;51.786;6.018;2023-07-02T14:06:56;22.20;99.00
23803;DHT22;12082;51.786;6.018;2023-07-02T14:09:22;22.40;97.90
23803;DHT22;12082;51.786;6.018;2023-07-02T14:11:48;22.20;99.30
23803;DHT22;12082;51.786;6.018;2023-07-02T14:14:13;22.00;99.30
23803;DHT22;12082;51.786;6.018;2023-07-02T14:16:39;21.70;98.90
23803;DHT22;12082;51.786;6.018;2023-07-02T14:19:04;21.60;98.80
23803;DHT22;12082;51.786;6.018;2023-07-02T14:21:30;21.50;99.80
23803;DHT22;12082;51.786;6.018;2023-07-02T14:23:56;21.70;99.80
23803;DHT22;12082;51.786;6.018;2023-07-02T14:26:22;22.00;99.70
23803;DHT22;12082;51.786;6.018;2023-07-02T14:28:47;22.20;99.60
23803;DHT22;12082;51.786;6.018;2023-07-02T14:31:13;22.30;98.90
23803;DHT22;12082;51.786;6.018;2023-07-02T14:33:39;22.40;99.00
23803;DHT22;12082;51.786;6.018;2023-07-02T14:36:05;22.10;99.00
23803;DHT22;12082;51.786;6.018;2023-07-02T14:38:32;21.70;99.90
23803;DHT22;12082;51.786;6.018;2023-07-02T14:40:59;21.60;99.90
23803;DHT22;12082;51.786;6.018;2023-07-02T14:43:27;21.90;99.10
23803;DHT22;12082;51.786;6.018;2023-07-02T14:45:55;22.00;99.70
23803;DHT22;12082;51.786;6.018;2023-07-02T14:48:21;21.80;99.90
23803;DHT22;12082;51.786;6.018;2023-07-02T14:50:55;21.90;99.90
23803;DHT22;12082;51.786;6.018;2023-07-02T14:53:22;22.00;99.90
23803;DHT22;12082;51.786;6.018;2023-07-02T14:55:48;22.20;99.90
23803;DHT22;12082;51.786;6.018;2023-07-02T14:58:15;22.40;99.30
23803;DHT22;12082;51.786;6.018;2023-07-02T15:00:49;22.10;99.80
23803;DHT22;12082;51.786;6.018;2023-07-02T15:03:16;22.10;99.60
23803;DHT22;12082;51.786;6.018;2023-07-02T15:05:42;21.80;99.90
23803;DHT22;12082;51.786;6.018;2023-07-02T15:08:09;22.00;99.90
23803;DHT22;12082;51.786;6.018;2023-07-02T15:10:35;22.00;98.40
23803;DHT22;12082;51.786;6.018;2023-07-02T15:13:03;22.10;99.50
23803;DHT22;12082;51.786;6.018;2023-07-02T15:15:28;22.10;97.80
23803;DHT22;12082;51.786;6.018;2023-07-02T15:17:54;22.30;99.20
23803;DHT22;12082;51.786;6.018;2023-07-02T15:20:19;22.40;98.70
23803;DHT22;12082;51.786;6.018;2023-07-02T15:22:45;22.50;98.30
23803;DHT22;12082;51.786;6.018;2023-07-02T15:25:10;22.50;99.50
23803;DHT22;12082;51.786;6.018;2023-07-02T15:27:36;22.40;97.90
23803;DHT22;12082;51.786;6.018;2023-07-02T15:30:02;22.30;96.90